Terminal Aerodrome Forecast
Issued by NWS Glasgow, MT

Home | Current Version | Previous Version | Text Only | Print | Product List | Glossary On
Versions: 1 2 3 4 5 6 7 8 9 10 11 12
000
FTUS45 KGGW 191131
TAFGGW
TAF
KGGW 191131Z 1912/2012 VRB05KT P6SM SCT150
     FM200000 VRB05KT P6SM BKN060
     FM200600 VRB05KT P6SM BKN040=

USA.gov is the U.S. government's official web portal to all federal, state and local government web resources and services.